Time;durP1;ratioP1;P1;durP2;ratioP2;P2;SDS_P1;SDS_P2;PMS_P1;PMS_P2;Temp;Humidity;BMP_temperature;BMP_pressure;BME280_temperature;BME280_humidity;BME280_pressure;Samples;Min_cycle;Max_cycle;Signal;HPM_P1;HPM_P2
2023/12/14 00:01:31;;;;;;;2.47;2.27;;;8.70;99.90;;;;;;5032916;28;20175;-66
2023/12/14 00:03:57;;;;;;;3.03;2.70;;;8.70;99.90;;;;;;5033020;28;20164;-67
2023/12/14 00:06:23;;;;;;;3.10;2.80;;;8.70;99.90;;;;;;5032914;28;20248;-67
2023/12/14 00:08:48;;;;;;;2.60;2.40;;;8.60;99.90;;;;;;5042484;28;20178;-67
2023/12/14 00:11:14;;;;;;;3.50;2.87;;;8.80;99.90;;;;;;5052858;28;20629;-66
2023/12/14 00:13:39;;;;;;;2.87;2.50;;;8.90;99.90;;;;;;5053071;28;20280;-65
2023/12/14 00:16:05;;;;;;;2.30;2.00;;;8.90;99.90;;;;;;5053265;28;20203;-66
2023/12/14 00:18:31;;;;;;;3.00;2.53;;;8.90;99.90;;;;;;5049564;28;20549;-67
2023/12/14 00:20:56;;;;;;;4.00;2.00;;;8.90;99.90;;;;;;5036839;28;20416;-67
2023/12/14 00:23:25;;;;;;;2.77;2.40;;;9.00;99.90;;;;;;5037076;28;20169;-67
2023/12/14 00:25:51;;;;;;;2.70;2.27;;;9.00;99.90;;;;;;5036740;28;20171;-67
2023/12/14 00:28:17;;;;;;;2.57;2.33;;;9.00;99.90;;;;;;5055424;28;20542;-66
2023/12/14 00:30:42;;;;;;;2.10;1.83;;;9.10;99.90;;;;;;5056625;28;20647;-67
2023/12/14 00:33:08;;;;;;;3.53;1.90;;;9.00;99.90;;;;;;5056776;28;20180;-67
2023/12/14 00:35:33;;;;;;;2.10;1.57;;;9.10;99.90;;;;;;5056755;28;20178;-67
2023/12/14 00:37:59;;;;;;;2.83;1.57;;;9.10;99.90;;;;;;5056486;28;20191;-67
2023/12/14 00:40:25;;;;;;;1.53;1.43;;;9.10;99.90;;;;;;5056309;28;20171;-67
2023/12/14 00:42:50;;;;;;;1.57;1.47;;;9.10;99.90;;;;;;5056635;28;20198;-67
2023/12/14 00:45:16;;;;;;;2.10;1.50;;;9.10;99.90;;;;;;5056609;28;20194;-67
2023/12/14 00:47:42;;;;;;;2.97;1.87;;;9.00;99.90;;;;;;5055763;28;20193;-67
2023/12/14 00:50:08;;;;;;;1.40;1.30;;;9.00;99.90;;;;;;5056248;28;20173;-67
2023/12/14 00:52:33;;;;;;;2.17;1.43;;;9.00;99.90;;;;;;5038596;28;20180;-67
2023/12/14 00:54:59;;;;;;;1.70;1.50;;;9.10;99.90;;;;;;5056906;28;20417;-66
2023/12/14 00:57:24;;;;;;;1.50;1.10;;;9.10;99.90;;;;;;5056051;28;20195;-67
2023/12/14 00:59:50;;;;;;;2.50;1.53;;;9.10;99.90;;;;;;5055988;28;20196;-66
2023/12/14 01:02:15;;;;;;;2.40;1.40;;;9.00;99.90;;;;;;5056179;28;20179;-69
2023/12/14 01:04:42;;;;;;;2.10;1.43;;;9.00;99.90;;;;;;5056091;28;20167;-67
2023/12/14 01:07:08;;;;;;;1.30;1.20;;;8.90;99.90;;;;;;5056010;28;20186;-67
2023/12/14 01:09:33;;;;;;;1.53;1.30;;;9.00;99.90;;;;;;5056100;28;20410;-67
2023/12/14 01:11:59;;;;;;;2.60;1.87;;;9.00;99.90;;;;;;5056007;28;20409;-67
2023/12/14 01:14:24;;;;;;;1.80;1.30;;;9.10;99.90;;;;;;5056275;28;20266;-67
2023/12/14 01:16:50;;;;;;;2.00;1.43;;;9.10;99.90;;;;;;5055874;28;20604;-67
2023/12/14 01:19:15;;;;;;;2.20;1.33;;;9.10;99.90;;;;;;5055727;28;20224;-67
2023/12/14 01:21:41;;;;;;;1.97;1.30;;;9.10;99.90;;;;;;5055710;28;20541;-66
2023/12/14 01:24:06;;;;;;;1.47;1.37;;;9.20;99.90;;;;;;5056033;28;20171;-67
2023/12/14 01:26:32;;;;;;;4.00;1.20;;;9.10;99.90;;;;;;5055425;28;20202;-67
2023/12/14 01:28:59;;;;;;;2.23;1.70;;;9.20;99.90;;;;;;5055500;28;20176;-67
2023/12/14 01:31:24;;;;;;;2.30;1.50;;;9.10;99.90;;;;;;5055685;28;20174;-67
2023/12/14 01:33:51;;;;;;;1.67;1.20;;;9.10;99.90;;;;;;5055478;28;20414;-66
2023/12/14 01:36:21;;;;;;;1.90;1.40;;;8.90;99.90;;;;;;5043583;28;20421;-67
2023/12/14 01:38:47;;;;;;;1.80;1.20;;;9.10;99.90;;;;;;5031601;28;20445;-67
2023/12/14 01:41:12;;;;;;;1.87;1.40;;;9.00;99.90;;;;;;5055579;28;20415;-65
2023/12/14 01:43:38;;;;;;;1.53;1.43;;;9.10;99.90;;;;;;5055229;28;20171;-67
2023/12/14 01:46:03;;;;;;;1.77;1.10;;;9.20;99.90;;;;;;5055109;28;20552;-67
2023/12/14 01:48:29;;;;;;;2.40;1.40;;;9.30;99.90;;;;;;5055322;28;20637;-67
2023/12/14 01:50:55;;;;;;;2.87;1.80;;;9.40;99.90;;;;;;5055229;28;20228;-67
2023/12/14 01:53:21;;;;;;;1.50;1.40;;;9.40;99.90;;;;;;5054997;28;20180;-67
2023/12/14 01:55:47;;;;;;;1.40;1.30;;;9.30;99.90;;;;;;5055290;28;20445;-67
2023/12/14 01:58:13;;;;;;;2.37;1.70;;;9.30;99.90;;;;;;5054485;28;20204;-67
2023/12/14 02:01:09;;;;;;;1.40;1.30;;;9.20;99.90;;;;;;5054921;28;20250;-67
2023/12/14 02:03:35;;;;;;;2.03;1.40;;;9.10;99.90;;;;;;5054808;28;20180;-66
2023/12/14 02:06:00;;;;;;;1.90;1.40;;;9.20;99.90;;;;;;5054817;28;20858;-67
2023/12/14 02:08:27;;;;;;;1.70;1.60;;;9.20;99.90;;;;;;5053841;28;20189;-66
2023/12/14 02:10:53;;;;;;;1.97;1.70;;;9.20;99.90;;;;;;5054647;28;20670;-67
2023/12/14 02:13:18;;;;;;;1.70;1.60;;;9.20;99.90;;;;;;5054983;28;20403;-66
2023/12/14 02:15:44;;;;;;;3.17;2.10;;;9.10;99.90;;;;;;5054863;28;20638;-66
2023/12/14 02:18:10;;;;;;;4.70;2.50;;;9.00;99.90;;;;;;5054366;28;20568;-66
2023/12/14 02:20:35;;;;;;;1.80;1.70;;;9.00;99.90;;;;;;5054498;28;20179;-67
2023/12/14 02:23:01;;;;;;;2.60;2.00;;;9.00;99.90;;;;;;5054713;28;20160;-66
2023/12/14 02:25:27;;;;;;;3.20;1.70;;;8.90;99.90;;;;;;5054506;28;20175;-65
2023/12/14 02:27:53;;;;;;;1.90;1.80;;;9.00;99.90;;;;;;5054258;28;20816;-67
2023/12/14 02:30:18;;;;;;;2.93;2.13;;;9.00;99.90;;;;;;5036498;28;20223;-66
2023/12/14 02:32:44;;;;;;;2.10;1.90;;;9.10;99.90;;;;;;5054506;28;20173;-67
2023/12/14 02:35:10;;;;;;;2.17;1.60;;;9.10;99.90;;;;;;5054482;28;20206;-67
2023/12/14 02:37:45;;;;;;;2.07;1.87;;;9.20;99.90;;;;;;5054120;28;20202;-67
2023/12/14 02:40:11;;;;;;;2.70;1.70;;;9.20;99.90;;;;;;5053370;28;20255;-68
2023/12/14 02:42:37;;;;;;;2.30;2.10;;;9.10;99.90;;;;;;5054329;28;20412;-68
2023/12/14 02:45:03;;;;;;;3.40;1.70;;;9.00;99.90;;;;;;5054292;28;20779;-68
2023/12/14 02:47:29;;;;;;;1.77;1.67;;;9.10;99.90;;;;;;5053939;28;20481;-68
2023/12/14 02:49:55;;;;;;;1.60;1.50;;;9.00;99.90;;;;;;5053866;28;20505;-68
2023/12/14 02:52:21;;;;;;;2.80;1.80;;;9.00;99.90;;;;;;5054203;28;20845;-68
2023/12/14 02:54:46;;;;;;;2.70;1.30;;;9.00;99.90;;;;;;5054499;28;20167;-68
2023/12/14 02:57:12;;;;;;;1.50;1.40;;;8.90;99.90;;;;;;5053731;28;20196;-68
2023/12/14 02:59:37;;;;;;;1.60;1.20;;;9.00;99.90;;;;;;5053694;28;20552;-68
2023/12/14 03:02:03;;;;;;;2.77;1.70;;;9.00;99.90;;;;;;5053744;28;20179;-68
2023/12/14 03:04:28;;;;;;;4.90;1.27;;;9.10;99.90;;;;;;5053741;28;20661;-68
2023/12/14 03:06:54;;;;;;;1.90;1.43;;;8.90;99.90;;;;;;5053612;28;20223;-68
2023/12/14 03:09:20;;;;;;;1.93;1.60;;;9.10;99.90;;;;;;5053838;28;20245;-68
2023/12/14 03:11:46;;;;;;;2.40;1.27;;;9.20;99.90;;;;;;5053561;28;20191;-68
2023/12/14 03:14:11;;;;;;;3.60;1.70;;;9.30;99.90;;;;;;5053719;28;20182;-68
2023/12/14 03:16:37;;;;;;;1.30;1.10;;;9.30;99.90;;;;;;5053583;28;20428;-68
2023/12/14 03:19:03;;;;;;;1.90;1.63;;;9.20;99.90;;;;;;5053286;28;20633;-68
2023/12/14 03:21:29;;;;;;;2.50;1.47;;;9.20;99.90;;;;;;5053753;28;20193;-67
2023/12/14 03:23:54;;;;;;;2.90;1.10;;;9.10;99.90;;;;;;5053715;28;20410;-68
2023/12/14 03:26:20;;;;;;;1.63;1.53;;;9.10;99.90;;;;;;5053400;28;20942;-68
2023/12/14 03:28:46;;;;;;;1.93;1.20;;;9.20;99.90;;;;;;5053383;28;20232;-68
2023/12/14 03:31:12;;;;;;;2.40;1.27;;;9.20;99.90;;;;;;5053530;28;20203;-68
2023/12/14 03:33:38;;;;;;;2.50;1.37;;;9.10;99.90;;;;;;5053476;28;20179;-68
2023/12/14 03:36:04;;;;;;;1.67;1.40;;;9.20;99.90;;;;;;5052909;28;20415;-68
2023/12/14 03:38:31;;;;;;;1.73;1.27;;;9.10;99.90;;;;;;5052962;28;20477;-68
2023/12/14 03:40:56;;;;;;;1.50;1.40;;;9.10;99.90;;;;;;5053641;28;20403;-69
2023/12/14 03:43:22;;;;;;;1.40;1.30;;;9.20;99.90;;;;;;5053045;28;20419;-68
2023/12/14 03:45:47;;;;;;;1.50;1.27;;;9.20;99.90;;;;;;5046757;28;20260;-68
2023/12/14 03:48:13;;;;;;;2.90;1.33;;;9.30;99.90;;;;;;5015985;28;20259;-68
2023/12/14 03:50:38;;;;;;;3.13;1.30;;;9.30;99.90;;;;;;5052863;28;20176;-68
2023/12/14 03:53:04;;;;;;;3.00;1.60;;;9.40;99.90;;;;;;5053471;28;20574;-68
2023/12/14 03:55:30;;;;;;;4.40;1.27;;;9.30;99.90;;;;;;5052901;28;20196;-67
2023/12/14 03:57:55;;;;;;;1.50;1.40;;;9.30;99.90;;;;;;5052737;28;20192;-68
2023/12/14 04:00:21;;;;;;;1.87;1.20;;;9.30;99.90;;;;;;5052477;28;20176;-68
2023/12/14 04:02:46;;;;;;;2.83;1.60;;;9.40;99.90;;;;;;5053068;28;20173;-68
2023/12/14 04:05:12;;;;;;;2.90;1.40;;;9.30;99.90;;;;;;5052808;28;20175;-68
2023/12/14 04:07:40;;;;;;;1.33;1.23;;;9.20;99.90;;;;;;5052740;28;20196;-68
2023/12/14 04:10:08;;;;;;;2.10;1.90;;;9.20;99.90;;;;;;5052955;28;20272;-68
2023/12/14 04:12:35;;;;;;;1.47;1.37;;;9.20;99.90;;;;;;5053500;28;20452;-68
2023/12/14 04:15:01;;;;;;;1.37;1.00;;;9.20;99.90;;;;;;5052996;28;20977;-68
2023/12/14 04:17:26;;;;;;;1.40;1.20;;;9.20;99.90;;;;;;5052840;28;20514;-68
2023/12/14 04:19:52;;;;;;;2.00;1.73;;;9.20;99.90;;;;;;5052641;28;20203;-68
2023/12/14 04:22:17;;;;;;;2.07;1.57;;;9.20;99.90;;;;;;5052640;28;20164;-68
2023/12/14 04:24:43;;;;;;;1.37;1.27;;;9.30;99.90;;;;;;5052574;28;20172;-68
2023/12/14 04:27:08;;;;;;;1.67;1.57;;;9.30;99.90;;;;;;5052320;28;20207;-68
2023/12/14 04:29:34;;;;;;;1.90;1.23;;;9.30;99.90;;;;;;5040660;28;20184;-67
2023/12/14 04:32:00;;;;;;;2.13;1.70;;;9.30;99.90;;;;;;5033352;28;20214;-68
2023/12/14 04:34:25;;;;;;;1.33;1.17;;;9.30;99.90;;;;;;5032944;28;20168;-68
2023/12/14 04:36:52;;;;;;;1.83;1.27;;;9.20;99.90;;;;;;5033128;28;20220;-68
2023/12/14 04:39:18;;;;;;;1.60;1.40;;;9.30;99.90;;;;;;5042267;28;20225;-68
2023/12/14 04:41:44;;;;;;;4.23;1.20;;;9.30;99.90;;;;;;5052478;28;20834;-68
2023/12/14 04:44:10;;;;;;;2.30;1.30;;;9.30;99.90;;;;;;5053044;28;20172;-67
2023/12/14 04:46:36;;;;;;;1.50;1.20;;;9.30;99.90;;;;;;5052647;28;20200;-68
2023/12/14 04:49:01;;;;;;;2.13;1.27;;;9.30;99.90;;;;;;5045427;28;20404;-68
2023/12/14 04:51:27;;;;;;;2.77;1.27;;;9.30;99.90;;;;;;5032511;28;20195;-68
2023/12/14 04:53:52;;;;;;;1.97;1.60;;;9.30;99.90;;;;;;5032539;28;20541;-68
2023/12/14 04:56:18;;;;;;;2.30;1.43;;;9.30;99.90;;;;;;5032376;28;20178;-68
2023/12/14 04:58:44;;;;;;;1.80;1.70;;;9.40;99.90;;;;;;5036853;28;20191;-69
2023/12/14 05:01:09;;;;;;;1.50;1.40;;;9.40;99.90;;;;;;5052445;28;20194;-69
2023/12/14 05:03:35;;;;;;;1.93;1.67;;;9.40;99.90;;;;;;5055195;28;20541;-69
2023/12/14 05:06:01;;;;;;;2.10;1.70;;;9.40;99.90;;;;;;5056027;28;20245;-70
2023/12/14 05:08:27;;;;;;;2.07;1.90;;;9.40;99.90;;;;;;5053724;28;20404;-70
2023/12/14 05:10:52;;;;;;;3.37;2.27;;;9.40;99.90;;;;;;5036090;28;20411;-69
2023/12/14 05:13:18;;;;;;;2.80;2.60;;;9.50;99.90;;;;;;5036167;28;20167;-69
2023/12/14 05:15:43;;;;;;;2.97;2.07;;;9.50;99.90;;;;;;5036139;28;20178;-69
2023/12/14 05:18:09;;;;;;;2.30;2.10;;;9.50;99.90;;;;;;5035738;28;20588;-69
2023/12/14 05:20:35;;;;;;;2.13;1.93;;;9.50;99.90;;;;;;5044463;28;20480;-69
2023/12/14 05:23:01;;;;;;;3.90;2.90;;;9.60;99.90;;;;;;5026304;28;20183;-69
2023/12/14 05:25:27;;;;;;;3.73;2.60;;;9.50;99.90;;;;;;5026052;28;20406;-69
2023/12/14 05:27:52;;;;;;;3.67;2.90;;;9.50;99.90;;;;;;5025961;28;20619;-69
2023/12/14 05:30:18;;;;;;;3.40;3.07;;;9.60;99.90;;;;;;5026079;28;20186;-68
2023/12/14 05:32:44;;;;;;;3.53;3.20;;;9.60;99.90;;;;;;5038478;28;20256;-69
2023/12/14 05:35:10;;;;;;;9.67;6.20;;;9.70;99.90;;;;;;5055685;28;20171;-69
2023/12/14 05:37:36;;;;;;;7.60;5.43;;;9.60;99.90;;;;;;5032611;28;21296;-69
2023/12/14 05:40:02;;;;;;;5.03;4.30;;;9.60;99.90;;;;;;5028122;28;20235;-70
2023/12/14 05:42:28;;;;;;;12.87;9.40;;;9.70;99.90;;;;;;5035640;28;20401;-70
2023/12/14 05:44:54;;;;;;;5.23;4.17;;;9.70;99.90;;;;;;5035275;28;20479;-70
2023/12/14 05:47:19;;;;;;;19.40;12.00;;;9.60;99.90;;;;;;5018039;28;20273;-69
2023/12/14 05:49:45;;;;;;;16.30;11.33;;;9.50;99.90;;;;;;5039890;28;20607;-70
2023/12/14 05:52:11;;;;;;;39.70;25.27;;;9.60;99.90;;;;;;5055488;28;20179;-70
2023/12/14 05:54:38;;;;;;;13.03;8.97;;;9.40;99.90;;;;;;5055317;28;20263;-70
2023/12/14 05:57:04;;;;;;;27.00;17.10;;;9.40;99.90;;;;;;5055269;28;20540;-70
2023/12/14 05:59:30;;;;;;;120.60;69.80;;;9.40;99.90;;;;;;5044780;28;20483;-69
2023/12/14 06:01:59;;;;;;;67.53;37.97;;;9.40;99.90;;;;;;5045632;28;20442;-70
2023/12/14 06:04:26;;;;;;;19.83;14.33;;;9.50;99.90;;;;;;5053567;28;20661;-69
2023/12/14 06:06:52;;;;;;;10.23;7.60;;;9.30;99.90;;;;;;5054615;28;20984;-70
2023/12/14 06:09:21;;;;;;;7.33;6.37;;;9.30;99.90;;;;;;5046576;28;20500;-70
2023/12/14 06:11:48;;;;;;;9.30;5.87;;;9.40;99.90;;;;;;5034726;28;20184;-69
2023/12/14 06:14:13;;;;;;;8.60;6.37;;;9.40;99.90;;;;;;5033494;28;20423;-70
2023/12/14 06:16:39;;;;;;;5.27;4.80;;;9.50;99.90;;;;;;5034636;28;20432;-70
2023/12/14 06:19:04;;;;;;;5.13;4.00;;;9.40;99.90;;;;;;5043605;28;20198;-69
2023/12/14 06:21:30;;;;;;;4.50;4.07;;;9.40;99.90;;;;;;5035233;28;20647;-70
2023/12/14 06:23:57;;;;;;;4.60;4.00;;;9.40;99.90;;;;;;5034602;28;20186;-69
2023/12/14 06:26:23;;;;;;;4.27;3.87;;;9.50;99.90;;;;;;5044729;28;20222;-70
2023/12/14 06:28:48;;;;;;;4.43;3.73;;;9.50;99.90;;;;;;5054518;28;20397;-70
2023/12/14 06:31:15;;;;;;;5.90;5.20;;;9.60;99.90;;;;;;5054330;28;20230;-70
2023/12/14 06:33:41;;;;;;;4.23;3.83;;;9.50;99.90;;;;;;5054196;28;20174;-69
2023/12/14 06:36:10;;;;;;;5.57;5.07;;;9.50;99.90;;;;;;5054107;28;20909;-70
2023/12/14 06:38:40;;;;;;;5.93;5.20;;;9.50;99.90;;;;;;5052033;28;20664;-69
2023/12/14 06:41:06;;;;;;;4.00;3.60;;;9.50;99.90;;;;;;5034406;28;20409;-70
2023/12/14 06:43:32;;;;;;;5.00;4.10;;;9.60;99.90;;;;;;5034361;28;20403;-70
2023/12/14 06:45:57;;;;;;;6.53;5.03;;;9.60;99.90;;;;;;5034288;28;20408;-70
2023/12/14 06:48:23;;;;;;;4.03;3.73;;;9.50;99.90;;;;;;5033874;28;20203;-70
2023/12/14 06:50:48;;;;;;;5.63;4.40;;;9.50;99.90;;;;;;5054203;28;20311;-70
2023/12/14 06:53:15;;;;;;;8.27;5.43;;;9.40;99.90;;;;;;5054158;28;20180;-70
2023/12/14 06:55:41;;;;;;;5.33;4.83;;;9.30;99.90;;;;;;5053826;28;20587;-70
2023/12/14 06:58:11;;;;;;;5.63;5.13;;;9.20;99.90;;;;;;5044628;28;20477;-70
2023/12/14 07:00:37;;;;;;;5.97;5.37;;;9.10;99.90;;;;;;5043433;28;20541;-69
2023/12/14 07:03:03;;;;;;;5.73;4.73;;;9.30;99.90;;;;;;5043635;28;20498;-70
2023/12/14 07:05:28;;;;;;;5.47;4.97;;;9.40;99.90;;;;;;5044050;28;21022;-69
2023/12/14 07:07:54;;;;;;;6.30;5.00;;;9.50;99.90;;;;;;5050640;28;20425;-70
2023/12/14 07:10:20;;;;;;;5.30;4.57;;;9.50;99.90;;;;;;5053535;28;20175;-69
2023/12/14 07:12:46;;;;;;;6.63;4.57;;;9.50;99.90;;;;;;5053834;28;20569;-70
2023/12/14 07:15:12;;;;;;;5.40;4.70;;;9.50;99.90;;;;;;5053470;28;20169;-70
2023/12/14 07:17:37;;;;;;;6.00;4.80;;;9.50;99.90;;;;;;5053480;28;20425;-70
2023/12/14 07:20:03;;;;;;;5.60;4.80;;;9.60;99.90;;;;;;5039507;28;20247;-70
2023/12/14 07:22:29;;;;;;;5.33;4.20;;;9.70;99.90;;;;;;5033381;28;20172;-70
2023/12/14 07:24:54;;;;;;;7.63;4.97;;;9.60;99.90;;;;;;5033285;28;20411;-69
2023/12/14 07:27:20;;;;;;;5.13;4.70;;;9.70;99.90;;;;;;5043864;28;20245;-70
2023/12/14 07:29:45;;;;;;;5.30;4.70;;;9.70;99.90;;;;;;5053147;28;20178;-70
2023/12/14 07:32:12;;;;;;;5.43;4.93;;;9.70;99.90;;;;;;5053599;28;20221;-70
2023/12/14 07:34:37;;;;;;;5.67;4.73;;;9.80;99.90;;;;;;5053677;28;20165;-70
2023/12/14 07:37:03;;;;;;;5.83;4.73;;;9.80;99.90;;;;;;5053044;28;20430;-70
2023/12/14 07:39:28;;;;;;;4.30;3.90;;;9.90;99.90;;;;;;5031471;28;20198;-70
2023/12/14 07:41:54;;;;;;;6.00;5.10;;;9.90;99.90;;;;;;5025299;28;20451;-72
2023/12/14 07:44:20;;;;;;;5.90;5.30;;;10.00;99.90;;;;;;5023058;28;20255;-70
2023/12/14 07:46:45;;;;;;;5.83;4.33;;;10.00;99.90;;;;;;5022038;28;20188;-70
2023/12/14 07:49:11;;;;;;;6.67;5.37;;;10.00;99.90;;;;;;5029270;28;20194;-70
2023/12/14 07:51:37;;;;;;;4.33;3.93;;;10.00;99.90;;;;;;5021287;28;20215;-70
2023/12/14 07:54:04;;;;;;;4.97;4.30;;;10.00;99.90;;;;;;5020248;28;20169;-70
2023/12/14 07:56:29;;;;;;;5.53;3.80;;;10.00;99.90;;;;;;5023445;28;20201;-70
2023/12/14 07:58:55;;;;;;;4.47;4.07;;;10.00;99.90;;;;;;5027804;28;20535;-68
2023/12/14 08:01:20;;;;;;;6.80;4.37;;;10.00;99.90;;;;;;5052288;28;20248;-69
2023/12/14 08:03:46;;;;;;;3.77;3.40;;;10.10;99.90;;;;;;5052548;28;20221;-70
2023/12/14 08:06:12;;;;;;;4.03;3.70;;;10.10;99.90;;;;;;5052216;28;20234;-73
2023/12/14 08:08:37;;;;;;;5.83;4.73;;;10.10;99.90;;;;;;5052623;28;20235;-71
2023/12/14 08:11:04;;;;;;;3.87;3.57;;;10.00;99.90;;;;;;5053083;28;20170;-72
2023/12/14 08:13:30;;;;;;;4.50;3.50;;;10.10;99.90;;;;;;5052814;28;20171;-68
2023/12/14 08:15:56;;;;;;;3.80;3.50;;;10.10;99.90;;;;;;5052250;28;20753;-69
2023/12/14 08:18:21;;;;;;;4.80;4.23;;;10.20;99.90;;;;;;5052295;28;20197;-70
2023/12/14 08:20:47;;;;;;;4.20;3.80;;;10.00;99.90;;;;;;5052275;28;20178;-68
2023/12/14 08:23:12;;;;;;;4.73;4.20;;;10.00;99.90;;;;;;5052443;28;20169;-68
2023/12/14 08:25:38;;;;;;;5.90;4.00;;;10.00;99.90;;;;;;5052500;28;20198;-68
2023/12/14 08:28:03;;;;;;;5.73;4.37;;;10.10;99.90;;;;;;5051109;28;20205;-70
2023/12/14 08:30:29;;;;;;;5.17;4.03;;;10.20;99.90;;;;;;5036794;28;20182;-68
2023/12/14 08:32:54;;;;;;;4.53;4.13;;;10.20;99.90;;;;;;5032313;28;20535;-70
2023/12/14 08:35:20;;;;;;;5.20;4.70;;;10.30;99.90;;;;;;5032813;28;20253;-69
2023/12/14 08:37:46;;;;;;;5.97;4.97;;;10.30;99.90;;;;;;5033895;28;20189;-70
2023/12/14 08:40:12;;;;;;;5.87;4.47;;;10.20;99.90;;;;;;5049471;28;20759;-72
2023/12/14 08:42:37;;;;;;;4.60;4.20;;;10.10;99.90;;;;;;5056205;28;20168;-73
2023/12/14 08:45:03;;;;;;;5.80;5.30;;;10.20;99.90;;;;;;5056093;28;20397;-73
2023/12/14 08:47:29;;;;;;;5.10;4.60;;;10.10;99.90;;;;;;5056274;28;20191;-68
2023/12/14 08:49:54;;;;;;;5.80;5.30;;;9.90;99.90;;;;;;5045408;28;20682;-71
2023/12/14 08:52:20;;;;;;;6.20;5.60;;;10.00;99.90;;;;;;5036256;28;20179;-69
2023/12/14 08:54:46;;;;;;;5.53;4.80;;;10.10;99.90;;;;;;5035929;28;20186;-69
2023/12/14 08:57:11;;;;;;;7.47;6.20;;;10.20;99.90;;;;;;5036068;28;20191;-69
2023/12/14 08:59:37;;;;;;;6.30;5.57;;;10.30;99.90;;;;;;5043924;28;20506;-69
2023/12/14 09:02:03;;;;;;;5.83;5.27;;;10.40;99.90;;;;;;5055938;28;20482;-67
2023/12/14 09:04:28;;;;;;;5.37;4.57;;;10.30;99.90;;;;;;5056069;28;20634;-68
2023/12/14 09:06:54;;;;;;;7.10;5.47;;;10.30;99.90;;;;;;5055990;28;20194;-68
2023/12/14 09:09:19;;;;;;;5.93;5.30;;;10.30;99.90;;;;;;5050259;28;20175;-67
2023/12/14 09:11:45;;;;;;;6.87;6.17;;;10.40;99.90;;;;;;5036003;28;20168;-67
2023/12/14 09:14:10;;;;;;;6.53;6.03;;;10.00;99.90;;;;;;5035816;28;20590;-67
2023/12/14 09:16:36;;;;;;;6.80;6.20;;;10.30;99.90;;;;;;5035615;28;20672;-71
2023/12/14 09:19:02;;;;;;;6.00;5.47;;;10.30;99.90;;;;;;5038861;28;20565;-70
2023/12/14 09:21:27;;;;;;;9.20;6.30;;;10.20;99.90;;;;;;5056078;28;20157;-69
2023/12/14 09:23:55;;;;;;;8.23;7.37;;;10.30;99.90;;;;;;5055556;28;20166;-68
2023/12/14 09:26:21;;;;;;;9.67;8.33;;;10.30;99.90;;;;;;5055189;28;20236;-68
2023/12/14 09:28:46;;;;;;;7.00;6.30;;;10.50;99.90;;;;;;5051400;28;20404;-68
2023/12/14 09:31:12;;;;;;;6.90;6.30;;;10.50;99.90;;;;;;5035815;28;20170;-67
2023/12/14 09:33:37;;;;;;;6.80;6.20;;;10.60;99.90;;;;;;5035494;28;20171;-71
2023/12/14 09:36:03;;;;;;;5.73;5.23;;;10.60;99.90;;;;;;5035332;28;20168;-71
2023/12/14 09:38:29;;;;;;;5.40;4.90;;;10.70;99.90;;;;;;5035810;28;20227;-71
2023/12/14 09:40:55;;;;;;;7.73;6.93;;;10.90;99.90;;;;;;5053544;28;20500;-70
2023/12/14 09:43:21;;;;;;;7.00;6.30;;;10.80;99.90;;;;;;5055200;28;20198;-69
2023/12/14 09:45:48;;;;;;;6.77;6.17;;;10.90;99.90;;;;;;5055418;28;20187;-70
2023/12/14 09:48:16;;;;;;;7.80;6.80;;;10.80;99.90;;;;;;5032413;28;20438;-68
2023/12/14 09:50:44;;;;;;;7.33;6.63;;;10.60;99.90;;;;;;5047911;28;20401;-71
2023/12/14 09:53:10;;;;;;;7.23;6.63;;;10.50;99.90;;;;;;5055304;28;20410;-71
2023/12/14 09:55:36;;;;;;;7.77;6.83;;;10.40;99.90;;;;;;5055596;28;20408;-70
2023/12/14 09:58:06;;;;;;;6.93;6.23;;;10.30;99.90;;;;;;5055079;28;20192;-68
2023/12/14 10:00:39;;;;;;;9.50;7.07;;;10.50;99.90;;;;;;5040291;28;20190;-71
2023/12/14 10:03:22;;;;;;;7.87;7.07;;;10.50;99.90;;;;;;5034657;28;20382;-71
2023/12/14 10:05:48;;;;;;;8.80;7.70;;;10.40;99.90;;;;;;5035144;28;20379;-72
2023/12/14 10:08:16;;;;;;;7.03;6.33;;;10.50;99.90;;;;;;5037724;28;20422;-72
2023/12/14 10:10:42;;;;;;;9.20;7.17;;;10.80;99.90;;;;;;5038689;28;20394;-72
2023/12/14 10:13:08;;;;;;;8.00;7.20;;;11.10;99.90;;;;;;5034570;28;20427;-68
2023/12/14 10:15:44;;;;;;;8.17;7.37;;;11.30;99.90;;;;;;5034977;28;20827;-69
2023/12/14 10:18:10;;;;;;;8.87;6.70;;;11.60;99.90;;;;;;5034781;28;20503;-70
2023/12/14 10:20:40;;;;;;;7.07;6.37;;;11.70;99.90;;;;;;5049550;28;20428;-68
2023/12/14 10:23:07;;;;;;;10.20;7.10;;;11.60;99.90;;;;;;5054511;28;20402;-67
2023/12/14 10:25:33;;;;;;;6.73;6.07;;;11.60;99.90;;;;;;5054309;28;20464;-68
2023/12/14 10:28:00;;;;;;;6.90;6.20;;;11.70;99.90;;;;;;5054139;28;20453;-71
2023/12/14 10:30:27;;;;;;;6.63;6.03;;;11.50;99.90;;;;;;5070616;22;21897;-72
2023/12/14 10:32:53;;;;;;;7.77;7.00;;;11.30;99.90;;;;;;5095379;28;20392;-71
2023/12/14 10:35:21;;;;;;;6.53;5.93;;;11.50;99.90;;;;;;5094780;28;20383;-71
2023/12/14 10:37:51;;;;;;;8.50;7.70;;;11.40;99.90;;;;;;5094670;28;20453;-70
2023/12/14 10:40:17;;;;;;;6.40;5.80;;;11.40;99.90;;;;;;5092421;28;20442;-71
2023/12/14 10:42:44;;;;;;;6.57;5.97;;;11.40;99.90;;;;;;5074407;28;20773;-69
2023/12/14 10:45:13;;;;;;;7.80;7.00;;;11.40;99.90;;;;;;5074274;28;20395;-70
2023/12/14 10:47:43;;;;;;;7.07;6.37;;;11.50;99.90;;;;;;5074225;28;20397;-70
2023/12/14 10:50:11;;;;;;;7.33;6.63;;;11.50;99.90;;;;;;5074595;28;20457;-70
2023/12/14 10:52:39;;;;;;;10.93;6.43;;;11.60;99.90;;;;;;5052686;28;20421;-70
2023/12/14 10:55:08;;;;;;;7.53;6.50;;;11.70;99.90;;;;;;5054089;28;20433;-68
2023/12/14 10:57:34;;;;;;;8.17;7.23;;;11.60;99.90;;;;;;5035901;28;20745;-69
2023/12/14 11:00:01;;;;;;;9.33;7.40;;;11.20;99.90;;;;;;5053244;28;20957;-70
2023/12/14 11:02:27;;;;;;;8.43;7.00;;;10.90;99.90;;;;;;5072480;28;20794;-69
2023/12/14 11:05:09;;;;;;;10.40;6.97;;;10.70;99.90;;;;;;5073926;28;20396;-69
2023/12/14 11:07:55;;;;;;;7.33;6.37;;;10.60;99.90;;;;;;5073892;28;20490;-69
2023/12/14 11:10:28;;;;;;;8.23;7.10;;;10.50;99.90;;;;;;5073481;28;20487;-69
2023/12/14 11:12:59;;;;;;;8.23;6.53;;;10.70;99.90;;;;;;5073734;28;20417;-69
2023/12/14 11:15:27;;;;;;;8.73;6.50;;;10.80;99.90;;;;;;5055711;28;20419;-70
2023/12/14 11:18:10;;;;;;;9.63;6.90;;;11.20;99.90;;;;;;5073642;28;20408;-70
2023/12/14 11:20:45;;;;;;;9.67;7.00;;;11.90;99.90;;;;;;5073003;28;20473;-69
2023/12/14 11:23:17;;;;;;;9.37;6.10;;;12.00;99.90;;;;;;5073619;28;20403;-69
2023/12/14 11:25:43;;;;;;;7.40;5.90;;;11.60;99.90;;;;;;5073513;28;20381;-70
2023/12/14 11:28:10;;;;;;;7.40;6.70;;;11.30;99.90;;;;;;5073813;28;20420;-69
2023/12/14 11:30:36;;;;;;;9.13;8.10;;;11.20;99.90;;;;;;5073125;28;20440;-69
2023/12/14 11:33:02;;;;;;;7.53;6.83;;;11.10;99.90;;;;;;5073379;28;20392;-68
2023/12/14 11:35:28;;;;;;;11.60;7.50;;;11.30;99.90;;;;;;5073384;28;20913;-68
2023/12/14 11:37:56;;;;;;;11.10;7.10;;;11.20;99.90;;;;;;5073081;28;20492;-69
2023/12/14 11:40:22;;;;;;;9.83;7.73;;;11.00;99.90;;;;;;5073302;28;20192;-68
2023/12/14 11:43:03;;;;;;;9.23;7.87;;;11.00;99.90;;;;;;5073197;28;20404;-70
2023/12/14 11:45:28;;;;;;;9.10;7.17;;;11.00;99.90;;;;;;5066866;28;20408;-68
2023/12/14 11:47:54;;;;;;;8.50;7.60;;;11.10;99.90;;;;;;5074270;28;20408;-69
2023/12/14 11:50:20;;;;;;;8.20;7.40;;;10.90;99.90;;;;;;5074240;28;20167;-70
2023/12/14 11:52:46;;;;;;;8.40;6.90;;;10.80;99.90;;;;;;5073871;28;20165;-70
2023/12/14 11:55:11;;;;;;;9.17;7.43;;;11.00;99.90;;;;;;5074095;28;20415;-70
2023/12/14 11:57:37;;;;;;;9.00;7.50;;;11.00;99.90;;;;;;5076400;28;20168;-70
2023/12/14 12:00:04;;;;;;;9.70;6.83;;;10.70;99.90;;;;;;5084328;28;20232;-70
2023/12/14 12:02:30;;;;;;;8.63;6.90;;;10.60;99.90;;;;;;5090146;28;20181;-69
2023/12/14 12:04:55;;;;;;;9.83;7.43;;;10.50;99.90;;;;;;5093635;28;20411;-70
2023/12/14 12:07:21;;;;;;;6.17;5.57;;;10.50;99.90;;;;;;5091972;28;20257;-70
2023/12/14 12:09:47;;;;;;;6.80;5.97;;;10.60;99.90;;;;;;5093238;28;20185;-70
2023/12/14 12:12:13;;;;;;;7.80;5.07;;;10.80;99.90;;;;;;5095693;28;20224;-70
2023/12/14 12:14:39;;;;;;;9.13;4.63;;;10.90;99.90;;;;;;5094110;28;20424;-70
2023/12/14 12:17:06;;;;;;;4.57;3.47;;;10.90;99.90;;;;;;5079438;28;20166;-69
2023/12/14 12:19:33;;;;;;;3.90;3.10;;;10.80;99.90;;;;;;5079393;28;20452;-71
2023/12/14 12:21:58;;;;;;;4.03;2.57;;;10.80;99.90;;;;;;5079089;28;20429;-71
2023/12/14 12:24:24;;;;;;;2.80;2.07;;;10.90;99.90;;;;;;5090614;28;20410;-69
2023/12/14 12:26:50;;;;;;;2.97;2.50;;;10.80;99.90;;;;;;5081944;28;20579;-69
2023/12/14 12:29:15;;;;;;;2.93;2.73;;;10.80;99.90;;;;;;5076295;28;20180;-69
2023/12/14 12:31:42;;;;;;;3.30;3.00;;;10.80;99.90;;;;;;5076782;28;20440;-69
2023/12/14 12:34:08;;;;;;;2.70;2.50;;;10.90;99.90;;;;;;5076650;28;20166;-69
2023/12/14 12:36:35;;;;;;;6.23;3.17;;;10.70;99.90;;;;;;5077204;28;20446;-69
2023/12/14 12:39:00;;;;;;;3.00;2.60;;;10.40;99.90;;;;;;5076630;28;20451;-68
2023/12/14 12:41:26;;;;;;;2.90;2.60;;;10.50;99.90;;;;;;5076459;28;20432;-70
2023/12/14 12:43:51;;;;;;;2.77;2.47;;;10.30;99.90;;;;;;5077127;28;20176;-70
2023/12/14 12:46:18;;;;;;;3.90;2.43;;;10.10;99.90;;;;;;5076924;28;20255;-69
2023/12/14 12:48:44;;;;;;;2.63;2.17;;;10.00;99.90;;;;;;5076526;28;20172;-69